sensor_id;sensor_type;location;lat;lon;timestamp;P1;durP1;ratioP1;P2;durP2;ratioP2
75616;SDS011;64200;55.426;37.758;2022-12-11T00:02:20;7.68;;;3.97;;
75616;SDS011;64200;55.426;37.758;2022-12-11T00:07:21;22.10;;;4.10;;
75616;SDS011;64200;55.426;37.758;2022-12-11T00:12:21;10.20;;;4.65;;
75616;SDS011;64200;55.426;37.758;2022-12-11T00:17:22;17.27;;;5.37;;
75616;SDS011;64200;55.426;37.758;2022-12-11T00:22:23;11.25;;;4.72;;
75616;SDS011;64200;55.426;37.758;2022-12-11T00:27:23;20.98;;;4.75;;
75616;SDS011;64200;55.426;37.758;2022-12-11T00:32:24;10.68;;;4.07;;
75616;SDS011;64200;55.426;37.758;2022-12-11T00:37:25;13.95;;;3.88;;
75616;SDS011;64200;55.426;37.758;2022-12-11T00:42:27;18.52;;;4.68;;
75616;SDS011;64200;55.426;37.758;2022-12-11T00:47:27;16.13;;;5.30;;
75616;SDS011;64200;55.426;37.758;2022-12-11T00:52:28;17.75;;;5.28;;
75616;SDS011;64200;55.426;37.758;2022-12-11T00:57:30;19.85;;;5.38;;
75616;SDS011;64200;55.426;37.758;2022-12-11T01:02:30;20.02;;;6.32;;
75616;SDS011;64200;55.426;37.758;2022-12-11T01:07:31;18.35;;;5.68;;
75616;SDS011;64200;55.426;37.758;2022-12-11T01:12:32;19.52;;;5.70;;
75616;SDS011;64200;55.426;37.758;2022-12-11T01:17:32;17.90;;;5.78;;
75616;SDS011;64200;55.426;37.758;2022-12-11T01:22:33;24.90;;;6.67;;
75616;SDS011;64200;55.426;37.758;2022-12-11T01:27:33;13.17;;;5.50;;
75616;SDS011;64200;55.426;37.758;2022-12-11T01:32:34;17.98;;;6.28;;
75616;SDS011;64200;55.426;37.758;2022-12-11T01:37:35;12.88;;;5.63;;
75616;SDS011;64200;55.426;37.758;2022-12-11T01:42:36;19.60;;;6.67;;
75616;SDS011;64200;55.426;37.758;2022-12-11T01:47:36;32.33;;;6.82;;
75616;SDS011;64200;55.426;37.758;2022-12-11T01:52:37;20.98;;;6.68;;
75616;SDS011;64200;55.426;37.758;2022-12-11T01:57:41;26.38;;;7.20;;
75616;SDS011;64200;55.426;37.758;2022-12-11T02:02:43;28.33;;;6.93;;
75616;SDS011;64200;55.426;37.758;2022-12-11T02:07:49;24.15;;;5.45;;
75616;SDS011;64200;55.426;37.758;2022-12-11T02:12:56;24.50;;;5.90;;
75616;SDS011;64200;55.426;37.758;2022-12-11T02:18:15;24.65;;;6.95;;
75616;SDS011;64200;55.426;37.758;2022-12-11T02:28:31;27.85;;;6.85;;
75616;SDS011;64200;55.426;37.758;2022-12-11T02:33:47;28.17;;;7.13;;
75616;SDS011;64200;55.426;37.758;2022-12-11T02:38:53;71.40;;;8.70;;
75616;SDS011;64200;55.426;37.758;2022-12-11T02:43:56;58.00;;;8.40;;
75616;SDS011;64200;55.426;37.758;2022-12-11T02:48:57;27.65;;;7.40;;
75616;SDS011;64200;55.426;37.758;2022-12-11T02:53:58;91.38;;;10.90;;
75616;SDS011;64200;55.426;37.758;2022-12-11T02:59:01;76.63;;;9.38;;
75616;SDS011;64200;55.426;37.758;2022-12-11T03:04:08;49.97;;;8.65;;
75616;SDS011;64200;55.426;37.758;2022-12-11T03:09:09;46.00;;;8.88;;
75616;SDS011;64200;55.426;37.758;2022-12-11T03:14:09;40.47;;;7.95;;
75616;SDS011;64200;55.426;37.758;2022-12-11T03:24:59;87.25;;;11.02;;
75616;SDS011;64200;55.426;37.758;2022-12-11T03:30:09;33.47;;;7.53;;
75616;SDS011;64200;55.426;37.758;2022-12-11T03:35:17;60.45;;;8.20;;
75616;SDS011;64200;55.426;37.758;2022-12-11T03:40:22;34.03;;;7.22;;
75616;SDS011;64200;55.426;37.758;2022-12-11T03:45:25;35.28;;;6.82;;
75616;SDS011;64200;55.426;37.758;2022-12-11T03:50:29;50.72;;;7.95;;
75616;SDS011;64200;55.426;37.758;2022-12-11T03:55:32;27.45;;;7.68;;
75616;SDS011;64200;55.426;37.758;2022-12-11T04:00:36;42.13;;;7.93;;
75616;SDS011;64200;55.426;37.758;2022-12-11T04:05:37;48.03;;;8.32;;
75616;SDS011;64200;55.426;37.758;2022-12-11T04:10:39;93.10;;;9.85;;
75616;SDS011;64200;55.426;37.758;2022-12-11T04:15:40;173.25;;;14.55;;
75616;SDS011;64200;55.426;37.758;2022-12-11T04:20:41;56.60;;;8.33;;
75616;SDS011;64200;55.426;37.758;2022-12-11T04:26:04;80.65;;;9.52;;
75616;SDS011;64200;55.426;37.758;2022-12-11T04:31:06;82.78;;;9.32;;
75616;SDS011;64200;55.426;37.758;2022-12-11T04:36:14;88.80;;;10.85;;
75616;SDS011;64200;55.426;37.758;2022-12-11T04:41:15;131.55;;;13.20;;
75616;SDS011;64200;55.426;37.758;2022-12-11T04:46:17;122.00;;;14.00;;
75616;SDS011;64200;55.426;37.758;2022-12-11T04:51:19;75.18;;;8.98;;
75616;SDS011;64200;55.426;37.758;2022-12-11T04:56:20;99.18;;;12.57;;
75616;SDS011;64200;55.426;37.758;2022-12-11T05:01:21;94.28;;;13.55;;
75616;SDS011;64200;55.426;37.758;2022-12-11T05:06:22;97.72;;;13.35;;
75616;SDS011;64200;55.426;37.758;2022-12-11T05:11:22;45.97;;;10.43;;
75616;SDS011;64200;55.426;37.758;2022-12-11T05:16:23;121.95;;;15.23;;
75616;SDS011;64200;55.426;37.758;2022-12-11T05:21:23;218.67;;;20.27;;
75616;SDS011;64200;55.426;37.758;2022-12-11T05:26:24;38.90;;;8.70;;
75616;SDS011;64200;55.426;37.758;2022-12-11T05:31:25;88.60;;;11.68;;
75616;SDS011;64200;55.426;37.758;2022-12-11T05:36:28;66.55;;;11.18;;
75616;SDS011;64200;55.426;37.758;2022-12-11T05:41:31;114.05;;;13.27;;
75616;SDS011;64200;55.426;37.758;2022-12-11T05:46:32;93.28;;;12.73;;
75616;SDS011;64200;55.426;37.758;2022-12-11T05:51:32;89.40;;;11.20;;
75616;SDS011;64200;55.426;37.758;2022-12-11T05:56:34;59.30;;;9.35;;
75616;SDS011;64200;55.426;37.758;2022-12-11T06:01:36;38.35;;;8.73;;
75616;SDS011;64200;55.426;37.758;2022-12-11T06:06:41;62.58;;;8.95;;
75616;SDS011;64200;55.426;37.758;2022-12-11T06:11:42;92.40;;;10.75;;
75616;SDS011;64200;55.426;37.758;2022-12-11T06:16:43;39.50;;;9.17;;
75616;SDS011;64200;55.426;37.758;2022-12-11T06:21:44;32.50;;;8.40;;
75616;SDS011;64200;55.426;37.758;2022-12-11T06:26:45;30.00;;;7.18;;
75616;SDS011;64200;55.426;37.758;2022-12-11T06:31:45;38.28;;;9.20;;
75616;SDS011;64200;55.426;37.758;2022-12-11T06:36:46;78.13;;;10.00;;
75616;SDS011;64200;55.426;37.758;2022-12-11T06:41:47;75.70;;;11.83;;
75616;SDS011;64200;55.426;37.758;2022-12-11T06:46:48;67.70;;;12.38;;
75616;SDS011;64200;55.426;37.758;2022-12-11T06:51:48;56.00;;;11.53;;
75616;SDS011;64200;55.426;37.758;2022-12-11T06:56:49;24.88;;;9.40;;
75616;SDS011;64200;55.426;37.758;2022-12-11T07:01:49;23.27;;;9.67;;
75616;SDS011;64200;55.426;37.758;2022-12-11T07:06:50;19.40;;;8.85;;
75616;SDS011;64200;55.426;37.758;2022-12-11T07:11:51;27.52;;;9.82;;
75616;SDS011;64200;55.426;37.758;2022-12-11T07:16:52;30.90;;;12.98;;
75616;SDS011;64200;55.426;37.758;2022-12-11T07:21:53;24.67;;;10.90;;
75616;SDS011;64200;55.426;37.758;2022-12-11T07:26:53;35.33;;;11.02;;
75616;SDS011;64200;55.426;37.758;2022-12-11T07:31:54;29.57;;;11.70;;
75616;SDS011;64200;55.426;37.758;2022-12-11T07:36:54;25.33;;;10.32;;
75616;SDS011;64200;55.426;37.758;2022-12-11T07:41:56;26.58;;;10.30;;
75616;SDS011;64200;55.426;37.758;2022-12-11T07:46:56;27.92;;;10.25;;
75616;SDS011;64200;55.426;37.758;2022-12-11T07:51:57;21.75;;;8.07;;
75616;SDS011;64200;55.426;37.758;2022-12-11T07:56:58;16.20;;;7.90;;
75616;SDS011;64200;55.426;37.758;2022-12-11T08:01:58;18.65;;;7.55;;
75616;SDS011;64200;55.426;37.758;2022-12-11T08:06:59;19.23;;;7.20;;
75616;SDS011;64200;55.426;37.758;2022-12-11T08:11:59;17.13;;;6.57;;
75616;SDS011;64200;55.426;37.758;2022-12-11T08:17:00;15.53;;;6.50;;
75616;SDS011;64200;55.426;37.758;2022-12-11T08:22:01;13.60;;;6.50;;
75616;SDS011;64200;55.426;37.758;2022-12-11T08:27:02;14.57;;;7.03;;
75616;SDS011;64200;55.426;37.758;2022-12-11T08:32:03;18.10;;;7.38;;
75616;SDS011;64200;55.426;37.758;2022-12-11T08:37:04;14.00;;;6.65;;
75616;SDS011;64200;55.426;37.758;2022-12-11T08:42:05;16.73;;;6.80;;
75616;SDS011;64200;55.426;37.758;2022-12-11T08:47:06;13.07;;;6.80;;
75616;SDS011;64200;55.426;37.758;2022-12-11T08:52:09;14.05;;;5.97;;
75616;SDS011;64200;55.426;37.758;2022-12-11T08:57:09;12.53;;;6.70;;
75616;SDS011;64200;55.426;37.758;2022-12-11T09:02:10;13.70;;;7.05;;
75616;SDS011;64200;55.426;37.758;2022-12-11T09:07:11;15.68;;;7.45;;
75616;SDS011;64200;55.426;37.758;2022-12-11T09:12:12;16.33;;;7.72;;
75616;SDS011;64200;55.426;37.758;2022-12-11T09:17:13;14.43;;;7.00;;
75616;SDS011;64200;55.426;37.758;2022-12-11T09:22:13;14.05;;;8.23;;
75616;SDS011;64200;55.426;37.758;2022-12-11T09:27:14;12.25;;;5.63;;
75616;SDS011;64200;55.426;37.758;2022-12-11T09:32:14;13.75;;;7.80;;
75616;SDS011;64200;55.426;37.758;2022-12-11T09:37:15;14.07;;;6.07;;
75616;SDS011;64200;55.426;37.758;2022-12-11T09:57:59;16.63;;;8.40;;
75616;SDS011;64200;55.426;37.758;2022-12-11T10:03:16;24.25;;;8.93;;
75616;SDS011;64200;55.426;37.758;2022-12-11T10:08:29;15.40;;;7.25;;
75616;SDS011;64200;55.426;37.758;2022-12-11T10:13:48;15.45;;;7.50;;
75616;SDS011;64200;55.426;37.758;2022-12-11T10:19:03;10.50;;;5.85;;
75616;SDS011;64200;55.426;37.758;2022-12-11T10:24:04;12.63;;;6.63;;
75616;SDS011;64200;55.426;37.758;2022-12-11T10:29:14;15.57;;;7.20;;
75616;SDS011;64200;55.426;37.758;2022-12-11T10:34:21;17.02;;;7.65;;
75616;SDS011;64200;55.426;37.758;2022-12-11T10:39:22;14.32;;;7.40;;
75616;SDS011;64200;55.426;37.758;2022-12-11T10:44:29;16.98;;;7.50;;
75616;SDS011;64200;55.426;37.758;2022-12-11T10:49:32;16.80;;;7.30;;
75616;SDS011;64200;55.426;37.758;2022-12-11T10:54:34;17.42;;;7.40;;
75616;SDS011;64200;55.426;37.758;2022-12-11T11:04:42;16.02;;;6.78;;
75616;SDS011;64200;55.426;37.758;2022-12-11T11:09:44;17.35;;;7.68;;
75616;SDS011;64200;55.426;37.758;2022-12-11T11:14:57;12.50;;;6.30;;
75616;SDS011;64200;55.426;37.758;2022-12-11T11:20:11;17.80;;;7.00;;
75616;SDS011;64200;55.426;37.758;2022-12-11T11:25:18;17.73;;;8.63;;
75616;SDS011;64200;55.426;37.758;2022-12-11T11:30:22;14.38;;;7.45;;
75616;SDS011;64200;55.426;37.758;2022-12-11T11:35:25;20.20;;;8.15;;
75616;SDS011;64200;55.426;37.758;2022-12-11T11:40:29;14.80;;;7.45;;
75616;SDS011;64200;55.426;37.758;2022-12-11T11:45:42;17.00;;;8.55;;
75616;SDS011;64200;55.426;37.758;2022-12-11T12:01:18;15.98;;;6.95;;
75616;SDS011;64200;55.426;37.758;2022-12-11T12:12:03;17.13;;;7.30;;
75616;SDS011;64200;55.426;37.758;2022-12-11T12:23:00;15.85;;;7.22;;
75616;SDS011;64200;55.426;37.758;2022-12-11T12:28:14;15.25;;;7.95;;
75616;SDS011;64200;55.426;37.758;2022-12-11T12:33:36;17.15;;;8.27;;
75616;SDS011;64200;55.426;37.758;2022-12-11T12:44:59;17.20;;;7.80;;
75616;SDS011;64200;55.426;37.758;2022-12-11T12:50:12;14.52;;;7.45;;
75616;SDS011;64200;55.426;37.758;2022-12-11T13:00:40;14.38;;;6.53;;
75616;SDS011;64200;55.426;37.758;2022-12-11T13:05:43;15.50;;;7.00;;
75616;SDS011;64200;55.426;37.758;2022-12-11T13:11:07;14.50;;;6.97;;
75616;SDS011;64200;55.426;37.758;2022-12-11T13:26:30;11.85;;;6.40;;
75616;SDS011;64200;55.426;37.758;2022-12-11T13:31:36;10.77;;;5.57;;
75616;SDS011;64200;55.426;37.758;2022-12-11T13:36:38;11.27;;;5.57;;
75616;SDS011;64200;55.426;37.758;2022-12-11T13:41:40;13.35;;;5.97;;
75616;SDS011;64200;55.426;37.758;2022-12-11T13:46:46;12.98;;;6.30;;
75616;SDS011;64200;55.426;37.758;2022-12-11T13:51:53;12.63;;;5.85;;
75616;SDS011;64200;55.426;37.758;2022-12-11T13:57:00;8.48;;;4.72;;
75616;SDS011;64200;55.426;37.758;2022-12-11T14:07:32;10.07;;;4.95;;
75616;SDS011;64200;55.426;37.758;2022-12-11T14:12:35;7.03;;;3.85;;
75616;SDS011;64200;55.426;37.758;2022-12-11T14:17:36;7.95;;;3.58;;
75616;SDS011;64200;55.426;37.758;2022-12-11T14:22:39;7.38;;;3.35;;
75616;SDS011;64200;55.426;37.758;2022-12-11T14:27:45;10.40;;;3.23;;
75616;SDS011;64200;55.426;37.758;2022-12-11T14:32:49;5.60;;;1.92;;
75616;SDS011;64200;55.426;37.758;2022-12-11T14:37:53;4.32;;;2.85;;
75616;SDS011;64200;55.426;37.758;2022-12-11T14:42:55;4.68;;;2.47;;
75616;SDS011;64200;55.426;37.758;2022-12-11T14:48:00;4.63;;;2.53;;
75616;SDS011;64200;55.426;37.758;2022-12-11T14:53:12;4.38;;;2.65;;
75616;SDS011;64200;55.426;37.758;2022-12-11T14:58:18;4.72;;;2.85;;
75616;SDS011;64200;55.426;37.758;2022-12-11T15:03:24;5.72;;;2.92;;
75616;SDS011;64200;55.426;37.758;2022-12-11T15:08:30;3.20;;;1.40;;
75616;SDS011;64200;55.426;37.758;2022-12-11T15:13:34;5.25;;;2.67;;
75616;SDS011;64200;55.426;37.758;2022-12-11T15:18:51;3.55;;;1.90;;
75616;SDS011;64200;55.426;37.758;2022-12-11T15:23:55;3.67;;;2.50;;
75616;SDS011;64200;55.426;37.758;2022-12-11T15:29:01;3.70;;;2.10;;
75616;SDS011;64200;55.426;37.758;2022-12-11T15:34:21;5.60;;;2.05;;
75616;SDS011;64200;55.426;37.758;2022-12-11T15:39:22;4.47;;;2.25;;
75616;SDS011;64200;55.426;37.758;2022-12-11T15:44:23;3.43;;;1.53;;
75616;SDS011;64200;55.426;37.758;2022-12-11T15:49:23;3.85;;;2.08;;
75616;SDS011;64200;55.426;37.758;2022-12-11T15:54:24;4.05;;;2.03;;
75616;SDS011;64200;55.426;37.758;2022-12-11T15:59:24;4.50;;;1.63;;
75616;SDS011;64200;55.426;37.758;2022-12-11T16:04:27;2.03;;;1.20;;
75616;SDS011;64200;55.426;37.758;2022-12-11T16:09:28;0.80;;;0.70;;
75616;SDS011;64200;55.426;37.758;2022-12-11T16:14:28;4.07;;;2.63;;
75616;SDS011;64200;55.426;37.758;2022-12-11T16:19:29;2.20;;;1.60;;
75616;SDS011;64200;55.426;37.758;2022-12-11T16:24:30;3.50;;;1.80;;
75616;SDS011;64200;55.426;37.758;2022-12-11T16:29:34;2.15;;;1.40;;
75616;SDS011;64200;55.426;37.758;2022-12-11T16:34:36;2.83;;;1.70;;
75616;SDS011;64200;55.426;37.758;2022-12-11T16:39:37;2.75;;;1.50;;
75616;SDS011;64200;55.426;37.758;2022-12-11T16:44:38;3.33;;;1.15;;
75616;SDS011;64200;55.426;37.758;2022-12-11T16:49:38;2.75;;;1.48;;
75616;SDS011;64200;55.426;37.758;2022-12-11T16:54:40;2.28;;;1.25;;
75616;SDS011;64200;55.426;37.758;2022-12-11T16:59:40;1.35;;;1.02;;
75616;SDS011;64200;55.426;37.758;2022-12-11T17:04:42;2.85;;;1.27;;
75616;SDS011;64200;55.426;37.758;2022-12-11T17:09:43;5.45;;;2.45;;
75616;SDS011;64200;55.426;37.758;2022-12-11T17:14:43;3.40;;;2.00;;
75616;SDS011;64200;55.426;37.758;2022-12-11T17:19:44;3.67;;;2.45;;
75616;SDS011;64200;55.426;37.758;2022-12-11T17:24:46;3.60;;;1.95;;
75616;SDS011;64200;55.426;37.758;2022-12-11T17:29:46;4.55;;;2.72;;
75616;SDS011;64200;55.426;37.758;2022-12-11T17:34:48;5.00;;;2.55;;
75616;SDS011;64200;55.426;37.758;2022-12-11T17:39:49;3.13;;;1.70;;
75616;SDS011;64200;55.426;37.758;2022-12-11T17:44:50;3.73;;;2.17;;
75616;SDS011;64200;55.426;37.758;2022-12-11T17:49:51;3.20;;;2.20;;
75616;SDS011;64200;55.426;37.758;2022-12-11T17:54:53;2.85;;;1.88;;
75616;SDS011;64200;55.426;37.758;2022-12-11T17:59:54;3.08;;;1.73;;
75616;SDS011;64200;55.426;37.758;2022-12-11T18:04:55;2.08;;;1.17;;
75616;SDS011;64200;55.426;37.758;2022-12-11T18:09:56;2.45;;;1.30;;
75616;SDS011;64200;55.426;37.758;2022-12-11T18:15:00;2.40;;;1.70;;
75616;SDS011;64200;55.426;37.758;2022-12-11T18:20:02;3.25;;;1.80;;
75616;SDS011;64200;55.426;37.758;2022-12-11T18:25:03;2.10;;;1.70;;
75616;SDS011;64200;55.426;37.758;2022-12-11T18:30:05;2.95;;;2.15;;
75616;SDS011;64200;55.426;37.758;2022-12-11T18:35:06;3.78;;;2.30;;
75616;SDS011;64200;55.426;37.758;2022-12-11T18:40:08;3.83;;;2.28;;
75616;SDS011;64200;55.426;37.758;2022-12-11T18:45:11;3.95;;;2.72;;
75616;SDS011;64200;55.426;37.758;2022-12-11T18:50:11;4.28;;;2.40;;
75616;SDS011;64200;55.426;37.758;2022-12-11T18:55:13;3.33;;;1.55;;
75616;SDS011;64200;55.426;37.758;2022-12-11T19:00:14;3.35;;;1.75;;
75616;SDS011;64200;55.426;37.758;2022-12-11T19:05:15;3.70;;;1.60;;
75616;SDS011;64200;55.426;37.758;2022-12-11T19:10:16;2.80;;;1.33;;
75616;SDS011;64200;55.426;37.758;2022-12-11T19:15:16;3.88;;;1.95;;
75616;SDS011;64200;55.426;37.758;2022-12-11T19:20:17;3.75;;;2.45;;
75616;SDS011;64200;55.426;37.758;2022-12-11T19:25:17;4.70;;;3.00;;
75616;SDS011;64200;55.426;37.758;2022-12-11T19:30:18;3.47;;;1.90;;
75616;SDS011;64200;55.426;37.758;2022-12-11T19:35:19;4.40;;;2.55;;
75616;SDS011;64200;55.426;37.758;2022-12-11T19:40:19;4.18;;;2.75;;
75616;SDS011;64200;55.426;37.758;2022-12-11T19:45:20;4.65;;;2.22;;
75616;SDS011;64200;55.426;37.758;2022-12-11T19:50:21;6.85;;;2.53;;
75616;SDS011;64200;55.426;37.758;2022-12-11T19:55:22;6.40;;;3.17;;
75616;SDS011;64200;55.426;37.758;2022-12-11T20:00:22;5.97;;;3.33;;
75616;SDS011;64200;55.426;37.758;2022-12-11T20:05:23;7.68;;;4.10;;
75616;SDS011;64200;55.426;37.758;2022-12-11T20:10:24;9.27;;;3.63;;
75616;SDS011;64200;55.426;37.758;2022-12-11T20:15:29;10.60;;;5.03;;
75616;SDS011;64200;55.426;37.758;2022-12-11T20:20:33;11.90;;;5.18;;
75616;SDS011;64200;55.426;37.758;2022-12-11T20:25:36;9.70;;;4.73;;
75616;SDS011;64200;55.426;37.758;2022-12-11T20:30:38;8.93;;;4.32;;
75616;SDS011;64200;55.426;37.758;2022-12-11T20:35:39;11.00;;;5.17;;
75616;SDS011;64200;55.426;37.758;2022-12-11T20:40:44;11.18;;;6.20;;
75616;SDS011;64200;55.426;37.758;2022-12-11T20:45:48;18.70;;;7.22;;
75616;SDS011;64200;55.426;37.758;2022-12-11T20:50:49;11.00;;;5.60;;
75616;SDS011;64200;55.426;37.758;2022-12-11T20:55:50;14.40;;;7.23;;
75616;SDS011;64200;55.426;37.758;2022-12-11T21:00:50;8.52;;;4.28;;
75616;SDS011;64200;55.426;37.758;2022-12-11T21:05:51;19.38;;;9.35;;
75616;SDS011;64200;55.426;37.758;2022-12-11T21:10:52;13.13;;;6.70;;
75616;SDS011;64200;55.426;37.758;2022-12-11T21:15:52;17.48;;;8.23;;
75616;SDS011;64200;55.426;37.758;2022-12-11T21:20:55;15.18;;;7.75;;
75616;SDS011;64200;55.426;37.758;2022-12-11T21:25:56;17.23;;;8.30;;
75616;SDS011;64200;55.426;37.758;2022-12-11T21:30:58;18.75;;;8.18;;
75616;SDS011;64200;55.426;37.758;2022-12-11T21:36:00;16.58;;;8.88;;
75616;SDS011;64200;55.426;37.758;2022-12-11T21:41:08;16.45;;;8.13;;
75616;SDS011;64200;55.426;37.758;2022-12-11T21:46:16;24.98;;;10.27;;
75616;SDS011;64200;55.426;37.758;2022-12-11T21:56:40;10.75;;;5.82;;
75616;SDS011;64200;55.426;37.758;2022-12-11T22:01:42;12.68;;;7.53;;
75616;SDS011;64200;55.426;37.758;2022-12-11T22:06:45;16.85;;;8.82;;
75616;SDS011;64200;55.426;37.758;2022-12-11T22:11:46;16.35;;;7.32;;
75616;SDS011;64200;55.426;37.758;2022-12-11T22:16:46;21.48;;;9.07;;
75616;SDS011;64200;55.426;37.758;2022-12-11T22:21:47;12.23;;;6.03;;
75616;SDS011;64200;55.426;37.758;2022-12-11T22:26:47;11.50;;;5.35;;
75616;SDS011;64200;55.426;37.758;2022-12-11T22:31:48;20.33;;;9.17;;
75616;SDS011;64200;55.426;37.758;2022-12-11T22:36:48;13.75;;;8.52;;
75616;SDS011;64200;55.426;37.758;2022-12-11T22:41:49;13.32;;;6.85;;
75616;SDS011;64200;55.426;37.758;2022-12-11T22:46:49;16.63;;;7.65;;
75616;SDS011;64200;55.426;37.758;2022-12-11T22:51:50;13.55;;;6.18;;
75616;SDS011;64200;55.426;37.758;2022-12-11T22:56:51;13.20;;;5.85;;
75616;SDS011;64200;55.426;37.758;2022-12-11T23:01:51;15.02;;;7.72;;
75616;SDS011;64200;55.426;37.758;2022-12-11T23:06:52;9.00;;;5.68;;
75616;SDS011;64200;55.426;37.758;2022-12-11T23:11:53;9.93;;;6.80;;
75616;SDS011;64200;55.426;37.758;2022-12-11T23:16:54;5.68;;;3.28;;
75616;SDS011;64200;55.426;37.758;2022-12-11T23:21:55;16.50;;;6.88;;
75616;SDS011;64200;55.426;37.758;2022-12-11T23:26:55;8.90;;;4.72;;
75616;SDS011;64200;55.426;37.758;2022-12-11T23:31:56;9.83;;;4.90;;
75616;SDS011;64200;55.426;37.758;2022-12-11T23:36:56;12.25;;;6.45;;
75616;SDS011;64200;55.426;37.758;2022-12-11T23:41:57;12.45;;;5.15;;
75616;SDS011;64200;55.426;37.758;2022-12-11T23:46:58;9.38;;;4.43;;
75616;SDS011;64200;55.426;37.758;2022-12-11T23:51:58;8.60;;;3.83;;
75616;SDS011;64200;55.426;37.758;2022-12-11T23:56:59;13.10;;;5.10;;
